createdAt,value
2023-01-28T00:00:36.734Z,0.00
2023-01-28T00:01:36.786Z,0.00
2023-01-28T00:02:36.796Z,0.00
2023-01-28T00:03:36.747Z,0.00
2023-01-28T00:04:36.684Z,0.00
2023-01-28T00:05:36.687Z,0.00
2023-01-28T00:06:36.693Z,0.00
2023-01-28T00:07:36.677Z,0.00
2023-01-28T00:08:36.647Z,0.00
2023-01-28T00:09:36.648Z,0.00
2023-01-28T00:10:36.629Z,0.00
2023-01-28T00:11:36.605Z,0.00
2023-01-28T00:12:36.626Z,0.00
2023-01-28T00:13:36.615Z,0.00
2023-01-28T00:14:36.601Z,0.00
2023-01-28T00:15:36.574Z,0.00
2023-01-28T00:16:36.552Z,0.00
2023-01-28T00:17:36.554Z,0.00
2023-01-28T00:18:36.567Z,0.00
2023-01-28T00:19:36.536Z,0.00
2023-01-28T00:20:36.504Z,0.00
2023-01-28T00:21:36.506Z,0.00
2023-01-28T00:22:36.486Z,0.00
2023-01-28T00:23:36.496Z,0.00
2023-01-28T00:24:36.508Z,0.00
2023-01-28T00:25:36.466Z,0.00
2023-01-28T00:26:36.695Z,0.00
2023-01-28T00:27:36.446Z,0.00
2023-01-28T00:28:36.419Z,0.00
2023-01-28T00:29:36.626Z,0.00
2023-01-28T00:30:36.425Z,0.00
2023-01-28T00:31:36.441Z,0.00
2023-01-28T00:32:36.411Z,0.00
2023-01-28T00:33:36.375Z,0.00
2023-01-28T00:34:36.375Z,0.00
2023-01-28T00:35:36.356Z,0.00
2023-01-28T00:36:36.323Z,0.00
2023-01-28T00:37:36.345Z,0.00
2023-01-28T00:38:36.304Z,0.00
2023-01-28T00:39:36.318Z,0.00
2023-01-28T00:40:36.290Z,0.00
2023-01-28T00:41:36.282Z,0.00
2023-01-28T00:42:36.282Z,0.00
2023-01-28T00:43:36.285Z,0.00
2023-01-28T00:44:36.249Z,0.00
2023-01-28T00:45:36.295Z,0.00
2023-01-28T00:46:37.354Z,0.00
2023-01-28T00:47:36.225Z,0.00
2023-01-28T00:48:36.209Z,0.00
2023-01-28T00:49:36.211Z,0.00
2023-01-28T00:50:36.164Z,0.00
2023-01-28T00:51:36.180Z,0.00
2023-01-28T00:52:36.162Z,0.00
2023-01-28T00:53:36.157Z,0.00
2023-01-28T00:54:36.159Z,0.00
2023-01-28T00:55:36.126Z,0.00
2023-01-28T00:56:36.115Z,0.00
2023-01-28T00:57:36.108Z,0.00
2023-01-28T00:58:36.098Z,0.00
2023-01-28T00:59:36.082Z,0.00
2023-01-28T01:00:36.083Z,0.00
2023-01-28T01:01:36.096Z,0.00
2023-01-28T01:02:36.088Z,0.00
2023-01-28T01:03:36.066Z,0.00
2023-01-28T01:04:36.016Z,0.00
2023-01-28T01:05:36.043Z,0.00
2023-01-28T01:06:36.233Z,0.00
2023-01-28T01:07:36.000Z,0.00
2023-01-28T01:08:36.037Z,0.00
2023-01-28T01:09:36.014Z,0.00
2023-01-28T01:10:35.990Z,0.00
2023-01-28T01:11:35.948Z,0.00
2023-01-28T01:12:35.943Z,0.00
2023-01-28T01:13:35.940Z,0.00
2023-01-28T01:14:35.915Z,0.00
2023-01-28T01:15:35.947Z,0.00
2023-01-28T01:16:35.904Z,0.00
2023-01-28T01:17:35.889Z,0.00
2023-01-28T01:18:35.873Z,0.00
2023-01-28T01:19:35.862Z,0.00
2023-01-28T01:20:35.841Z,0.00
2023-01-28T01:21:35.862Z,0.00
2023-01-28T01:22:35.836Z,0.00
2023-01-28T01:23:35.811Z,0.00
2023-01-28T01:24:35.791Z,0.00
2023-01-28T01:25:35.791Z,0.00
2023-01-28T01:26:35.804Z,0.00
2023-01-28T01:27:35.770Z,0.00
2023-01-28T01:28:35.763Z,0.00
2023-01-28T01:29:35.760Z,0.00
2023-01-28T01:30:35.749Z,0.00
2023-01-28T01:31:35.768Z,0.00
2023-01-28T01:32:35.703Z,0.00
2023-01-28T01:33:35.700Z,0.00
2023-01-28T01:34:35.707Z,0.00
2023-01-28T01:35:35.706Z,0.00
2023-01-28T01:36:35.671Z,0.00
2023-01-28T01:37:35.661Z,0.00
2023-01-28T01:38:35.631Z,0.00
2023-01-28T01:39:35.649Z,0.00
2023-01-28T01:40:35.626Z,0.00
2023-01-28T01:41:35.647Z,0.00
2023-01-28T01:42:35.593Z,0.00
2023-01-28T01:43:35.611Z,0.00
2023-01-28T01:44:35.579Z,0.00
2023-01-28T01:45:35.559Z,0.00
2023-01-28T01:46:35.548Z,0.00
2023-01-28T01:47:35.555Z,0.00
2023-01-28T01:48:35.554Z,0.00
2023-01-28T01:49:35.567Z,0.00
2023-01-28T01:50:35.499Z,0.00
2023-01-28T01:51:35.549Z,0.00
2023-01-28T01:52:35.503Z,0.00
2023-01-28T01:53:35.476Z,0.00
2023-01-28T01:54:35.473Z,0.00
2023-01-28T01:55:37.835Z,0.00
2023-01-28T01:56:35.439Z,0.00
2023-01-28T01:57:35.443Z,0.00
2023-01-28T01:58:35.419Z,0.00
2023-01-28T01:59:35.429Z,0.00
2023-01-28T02:00:35.391Z,0.00
2023-01-28T02:01:35.381Z,0.00
2023-01-28T02:02:35.381Z,0.00
2023-01-28T02:03:35.393Z,0.00
2023-01-28T02:04:35.358Z,0.00
2023-01-28T02:05:35.368Z,0.00
2023-01-28T02:06:35.316Z,0.00
2023-01-28T02:07:35.353Z,0.00
2023-01-28T02:08:35.299Z,0.00
2023-01-28T02:09:35.303Z,0.00
2023-01-28T02:10:35.307Z,0.00
2023-01-28T02:11:35.305Z,0.00
2023-01-28T02:12:35.284Z,0.00
2023-01-28T02:13:35.260Z,0.00
2023-01-28T02:14:35.227Z,0.00
2023-01-28T02:15:36.111Z,0.00
2023-01-28T02:16:35.280Z,0.00
2023-01-28T02:17:35.238Z,0.00
2023-01-28T02:18:35.189Z,0.00
2023-01-28T02:19:35.204Z,0.00
2023-01-28T02:20:35.195Z,0.00
2023-01-28T02:21:35.163Z,0.00
2023-01-28T02:22:35.134Z,0.00
2023-01-28T02:23:35.149Z,0.00
2023-01-28T02:24:35.128Z,0.00
2023-01-28T02:25:35.142Z,0.00
2023-01-28T02:26:35.108Z,0.00
2023-01-28T02:27:35.095Z,0.00
2023-01-28T02:28:35.092Z,0.00
2023-01-28T02:29:35.087Z,0.00
2023-01-28T02:30:35.146Z,0.00
2023-01-28T02:31:35.172Z,0.00
2023-01-28T02:32:35.043Z,0.00
2023-01-28T02:33:35.038Z,0.00
2023-01-28T02:34:35.027Z,0.00
2023-01-28T02:35:35.059Z,0.00
2023-01-28T02:36:35.009Z,0.00
2023-01-28T02:37:35.018Z,0.00
2023-01-28T02:38:34.970Z,0.00
2023-01-28T02:39:34.964Z,0.00
2023-01-28T02:40:34.961Z,0.00
2023-01-28T02:41:34.971Z,0.00
2023-01-28T02:42:34.924Z,0.00
2023-01-28T02:43:34.924Z,0.00
2023-01-28T02:44:34.897Z,0.00
2023-01-28T02:45:34.928Z,0.00
2023-01-28T02:46:34.999Z,0.00
2023-01-28T02:47:34.879Z,0.00
2023-01-28T02:48:34.857Z,0.00
2023-01-28T02:49:34.848Z,0.00
2023-01-28T02:50:34.836Z,0.00
2023-01-28T02:51:34.855Z,0.00
2023-01-28T02:52:34.811Z,0.00
2023-01-28T02:53:34.805Z,0.00
2023-01-28T02:54:34.788Z,0.00
2023-01-28T02:55:34.876Z,0.00
2023-01-28T02:56:34.784Z,0.00
2023-01-28T02:57:34.785Z,0.00
2023-01-28T02:58:34.767Z,0.00
2023-01-28T02:59:34.746Z,0.00
2023-01-28T03:00:34.742Z,0.00
2023-01-28T03:01:34.798Z,0.00
2023-01-28T03:02:34.824Z,0.00
2023-01-28T03:03:34.734Z,0.00
2023-01-28T03:04:34.692Z,0.00
2023-01-28T03:05:34.688Z,0.00
2023-01-28T03:06:34.664Z,0.00
2023-01-28T03:07:34.767Z,0.00
2023-01-28T03:08:34.676Z,0.00
2023-01-28T03:09:34.674Z,0.00
2023-01-28T03:10:34.682Z,0.00
2023-01-28T03:11:34.722Z,0.00
2023-01-28T03:12:34.740Z,0.00
2023-01-28T03:13:34.712Z,0.00
2023-01-28T03:14:34.755Z,0.00
2023-01-28T03:15:34.869Z,0.00
2023-01-28T03:16:34.773Z,0.00
2023-01-28T03:17:34.912Z,0.00
2023-01-28T03:18:34.766Z,0.00
2023-01-28T03:19:34.804Z,0.00
2023-01-28T03:20:34.736Z,0.00
2023-01-28T03:21:34.748Z,0.00
2023-01-28T03:22:34.737Z,0.00
2023-01-28T03:23:34.745Z,0.00
2023-01-28T03:24:34.453Z,0.00
2023-01-28T03:25:34.773Z,0.00
2023-01-28T03:26:34.445Z,0.00
2023-01-28T03:27:34.421Z,0.00
2023-01-28T03:28:34.401Z,0.00
2023-01-28T03:29:34.413Z,0.00
2023-01-28T03:30:34.417Z,0.00
2023-01-28T03:31:34.404Z,0.00
2023-01-28T03:32:34.379Z,0.00
2023-01-28T03:33:34.364Z,0.00
2023-01-28T03:34:34.340Z,0.00
2023-01-28T03:35:34.352Z,0.00
2023-01-28T03:36:34.325Z,0.00
2023-01-28T03:37:34.333Z,0.00
2023-01-28T03:38:34.353Z,0.00
2023-01-28T03:39:34.373Z,0.00
2023-01-28T03:40:34.442Z,0.00
2023-01-28T03:41:34.382Z,0.00
2023-01-28T03:42:34.260Z,0.00
2023-01-28T03:43:34.253Z,0.00
2023-01-28T03:44:34.243Z,0.00
2023-01-28T03:45:34.229Z,0.00
2023-01-28T03:46:34.216Z,0.00
2023-01-28T03:47:34.230Z,0.00
2023-01-28T03:48:34.180Z,0.00
2023-01-28T03:49:34.183Z,0.00
2023-01-28T03:50:34.161Z,0.00
2023-01-28T03:51:34.162Z,0.00
2023-01-28T03:52:34.181Z,0.00
2023-01-28T03:53:34.142Z,0.00
2023-01-28T03:54:34.150Z,0.00
2023-01-28T03:55:34.128Z,0.00
2023-01-28T03:56:34.093Z,0.00
2023-01-28T03:57:34.104Z,0.00
2023-01-28T03:58:34.069Z,0.00
2023-01-28T03:59:34.080Z,0.00
2023-01-28T04:00:34.070Z,0.00
2023-01-28T04:01:34.065Z,0.00
2023-01-28T04:02:34.084Z,0.00
2023-01-28T04:03:34.017Z,0.00
2023-01-28T04:04:34.016Z,0.00
2023-01-28T04:05:34.021Z,0.00
2023-01-28T04:06:34.002Z,0.00
2023-01-28T04:07:33.989Z,0.00
2023-01-28T04:08:33.969Z,0.00
2023-01-28T04:09:33.969Z,0.00
2023-01-28T04:10:33.949Z,0.00
2023-01-28T04:11:33.958Z,0.00
2023-01-28T04:12:33.930Z,0.00
2023-01-28T04:13:33.950Z,0.00
2023-01-28T04:14:33.917Z,0.00
2023-01-28T04:15:33.908Z,0.00
2023-01-28T04:16:33.892Z,0.00
2023-01-28T04:17:33.867Z,0.00
2023-01-28T04:18:33.869Z,0.00
2023-01-28T04:19:33.840Z,0.00
2023-01-28T04:20:33.839Z,0.00
2023-01-28T04:21:33.827Z,0.00
2023-01-28T04:22:33.818Z,0.00
2023-01-28T04:23:33.811Z,0.00
2023-01-28T04:24:33.797Z,0.00
2023-01-28T04:25:33.782Z,0.00
2023-01-28T04:26:33.771Z,0.00
2023-01-28T04:27:33.747Z,0.00
2023-01-28T04:28:33.761Z,0.00
2023-01-28T04:29:33.747Z,0.00
2023-01-28T04:30:33.744Z,0.00
2023-01-28T04:31:33.742Z,0.00
2023-01-28T04:32:33.713Z,0.00
2023-01-28T04:33:33.709Z,0.00
2023-01-28T04:34:33.735Z,0.00
2023-01-28T04:35:33.669Z,0.00
2023-01-28T04:36:33.660Z,0.00
2023-01-28T04:37:33.647Z,0.00
2023-01-28T04:38:33.625Z,0.00
2023-01-28T04:39:33.644Z,0.00
2023-01-28T04:40:33.615Z,0.00
2023-01-28T04:41:33.606Z,0.00
2023-01-28T04:42:33.589Z,0.00
2023-01-28T04:43:33.579Z,0.00
2023-01-28T04:44:34.108Z,0.00
2023-01-28T04:45:33.559Z,0.00
2023-01-28T04:46:33.618Z,0.00
2023-01-28T04:47:33.531Z,0.00
2023-01-28T04:48:33.526Z,0.00
2023-01-28T04:49:33.522Z,0.00
2023-01-28T04:50:33.506Z,0.00
2023-01-28T04:51:33.487Z,0.00
2023-01-28T04:52:33.478Z,0.00
2023-01-28T04:53:33.458Z,0.00
2023-01-28T04:54:33.486Z,0.00
2023-01-28T04:55:33.446Z,0.00
2023-01-28T04:56:33.445Z,0.00
2023-01-28T04:57:33.421Z,0.00
2023-01-28T04:58:33.424Z,0.00
2023-01-28T04:59:33.398Z,0.00
2023-01-28T05:00:33.427Z,0.00
2023-01-28T05:01:33.368Z,0.00
2023-01-28T05:02:33.367Z,0.00
2023-01-28T05:03:36.192Z,0.00
2023-01-28T05:04:33.528Z,0.00
2023-01-28T05:05:33.343Z,0.00
2023-01-28T05:06:33.366Z,0.00
2023-01-28T05:07:33.308Z,0.00
2023-01-28T05:08:33.315Z,0.00
2023-01-28T05:09:33.298Z,0.00
2023-01-28T05:10:33.286Z,0.00
2023-01-28T05:11:33.259Z,0.00
2023-01-28T05:12:33.265Z,0.00
2023-01-28T05:13:33.247Z,0.00
2023-01-28T05:14:33.258Z,0.00
2023-01-28T05:15:33.256Z,0.00
2023-01-28T05:16:33.226Z,0.00
2023-01-28T05:17:33.240Z,0.00
2023-01-28T05:18:33.213Z,0.00
2023-01-28T05:19:33.217Z,0.00
2023-01-28T05:20:33.224Z,0.00
2023-01-28T05:21:33.214Z,0.00
2023-01-28T05:22:33.237Z,0.00
2023-01-28T05:23:33.255Z,0.00
2023-01-28T05:24:33.898Z,0.00
2023-01-28T05:25:33.261Z,0.00
2023-01-28T05:26:33.260Z,0.00
2023-01-28T05:27:33.257Z,0.00
2023-01-28T05:28:33.377Z,0.00
2023-01-28T05:29:33.302Z,0.00
2023-01-28T05:30:33.334Z,0.00
2023-01-28T05:31:33.305Z,0.00
2023-01-28T05:32:33.295Z,0.00
2023-01-28T05:33:33.328Z,0.00
2023-01-28T05:34:33.087Z,0.00
2023-01-28T05:35:33.022Z,0.00
2023-01-28T05:36:33.015Z,0.00
2023-01-28T05:37:32.979Z,0.00
2023-01-28T05:38:40.219Z,0.00
2023-01-28T05:39:32.974Z,0.00
2023-01-28T05:40:32.951Z,0.00
2023-01-28T05:41:32.933Z,0.00
2023-01-28T05:42:32.959Z,0.00
2023-01-28T05:43:32.922Z,0.00
2023-01-28T05:44:33.419Z,0.00
2023-01-28T05:45:33.083Z,0.00
2023-01-28T05:46:32.898Z,0.00
2023-01-28T05:47:32.917Z,0.00
2023-01-28T05:48:32.854Z,0.00
2023-01-28T05:49:32.835Z,0.00
2023-01-28T05:50:32.830Z,0.00
2023-01-28T05:51:32.840Z,0.00
2023-01-28T05:52:32.810Z,0.00
2023-01-28T05:53:32.779Z,0.00
2023-01-28T05:54:32.851Z,0.00
2023-01-28T05:55:32.775Z,0.00
2023-01-28T05:56:32.788Z,0.00
2023-01-28T05:57:32.783Z,0.00
2023-01-28T05:58:32.755Z,0.00
2023-01-28T05:59:32.748Z,0.00
2023-01-28T06:00:32.720Z,0.00
2023-01-28T06:01:32.721Z,0.00
2023-01-28T06:02:32.789Z,0.00
2023-01-28T06:03:32.687Z,0.00
2023-01-28T06:04:32.676Z,0.00
2023-01-28T06:05:32.703Z,0.00
2023-01-28T06:06:32.648Z,0.00
2023-01-28T06:07:32.657Z,0.00
2023-01-28T06:08:32.640Z,0.00
2023-01-28T06:09:32.625Z,0.00
2023-01-28T06:10:32.616Z,0.00
2023-01-28T06:11:32.606Z,0.00
2023-01-28T06:12:32.591Z,0.00
2023-01-28T06:13:32.599Z,0.00
2023-01-28T06:14:32.577Z,0.00
2023-01-28T06:15:32.576Z,0.00
2023-01-28T06:16:32.552Z,0.00
2023-01-28T06:17:32.529Z,0.00
2023-01-28T06:18:32.531Z,0.00
2023-01-28T06:19:32.518Z,0.00
2023-01-28T06:20:32.509Z,0.00
2023-01-28T06:21:32.496Z,0.00
2023-01-28T06:22:32.491Z,0.00
2023-01-28T06:23:32.456Z,0.00
2023-01-28T06:24:32.494Z,0.00
2023-01-28T06:25:32.441Z,0.00
2023-01-28T06:26:32.441Z,0.00
2023-01-28T06:27:32.486Z,0.00
2023-01-28T06:28:32.417Z,0.00
2023-01-28T06:29:32.396Z,0.00
2023-01-28T06:30:32.483Z,0.00
2023-01-28T06:31:32.380Z,0.00
2023-01-28T06:32:32.378Z,0.00
2023-01-28T06:33:32.853Z,0.00
2023-01-28T06:34:32.357Z,0.00
2023-01-28T06:35:32.361Z,0.00
2023-01-28T06:36:32.330Z,0.00
2023-01-28T06:37:32.317Z,0.00
2023-01-28T06:38:32.305Z,0.00
2023-01-28T06:39:32.297Z,0.00
2023-01-28T06:40:32.280Z,0.00
2023-01-28T06:41:32.270Z,0.00
2023-01-28T06:42:32.258Z,0.00
2023-01-28T06:43:32.240Z,0.00
2023-01-28T06:44:32.246Z,0.00
2023-01-28T06:45:32.225Z,0.00
2023-01-28T06:46:32.375Z,0.00
2023-01-28T06:47:32.185Z,0.00
2023-01-28T06:48:32.196Z,0.00
2023-01-28T06:49:32.165Z,0.00
2023-01-28T06:50:32.187Z,0.00
2023-01-28T06:51:32.197Z,0.00
2023-01-28T06:52:32.149Z,0.00
2023-01-28T06:53:32.713Z,0.00
2023-01-28T06:54:32.117Z,0.00
2023-01-28T06:55:32.106Z,0.00
2023-01-28T06:56:32.145Z,0.00
2023-01-28T06:57:32.078Z,0.00
2023-01-28T06:58:32.075Z,0.00
2023-01-28T06:59:32.061Z,0.00
2023-01-28T07:00:32.065Z,0.00
2023-01-28T07:01:32.058Z,0.00
2023-01-28T07:02:32.077Z,0.00
2023-01-28T07:03:32.026Z,0.00
2023-01-28T07:04:32.013Z,0.00
2023-01-28T07:05:31.995Z,0.00
2023-01-28T07:06:31.993Z,0.00
2023-01-28T07:07:31.985Z,0.00
2023-01-28T07:08:31.983Z,0.00
2023-01-28T07:09:31.954Z,0.00
2023-01-28T07:10:31.945Z,0.00
2023-01-28T07:11:31.954Z,0.00
2023-01-28T07:12:31.942Z,0.00
2023-01-28T07:13:32.464Z,0.00
2023-01-28T07:14:31.901Z,0.00
2023-01-28T07:15:31.883Z,0.00
2023-01-28T07:16:31.884Z,0.00
2023-01-28T07:17:31.913Z,0.00
2023-01-28T07:18:31.876Z,0.00
2023-01-28T07:19:31.841Z,0.00
2023-01-28T07:20:31.844Z,0.00
2023-01-28T07:21:31.822Z,0.00
2023-01-28T07:22:31.810Z,0.00
2023-01-28T07:23:31.817Z,0.00
2023-01-28T07:24:31.780Z,0.00
2023-01-28T07:25:31.777Z,0.00
2023-01-28T07:26:31.761Z,0.00
2023-01-28T07:27:31.762Z,0.00
2023-01-28T07:28:39.303Z,0.00
2023-01-28T07:29:34.452Z,0.00
2023-01-28T07:30:31.737Z,0.00
2023-01-28T07:31:31.817Z,0.00
2023-01-28T07:32:31.703Z,0.00
2023-01-28T07:33:31.745Z,0.00
2023-01-28T07:34:31.690Z,0.00
2023-01-28T07:35:31.689Z,0.00
2023-01-28T07:36:31.668Z,0.00
2023-01-28T07:37:31.663Z,0.00
2023-01-28T07:38:31.639Z,0.00
2023-01-28T07:39:31.611Z,0.00
2023-01-28T07:40:31.645Z,0.00
2023-01-28T07:41:31.589Z,0.00
2023-01-28T07:42:31.601Z,0.00
2023-01-28T07:43:31.599Z,0.00
2023-01-28T07:44:31.631Z,0.00
2023-01-28T07:45:31.550Z,0.00
2023-01-28T07:46:31.552Z,0.00
2023-01-28T07:47:31.547Z,0.00
2023-01-28T07:48:31.521Z,0.00
2023-01-28T07:49:31.532Z,5.62
2023-01-28T07:50:31.518Z,5.62
2023-01-28T07:51:31.495Z,5.62
2023-01-28T07:52:31.479Z,5.62
2023-01-28T07:53:31.459Z,5.62
2023-01-28T07:54:31.458Z,5.62
2023-01-28T07:55:31.607Z,5.62
2023-01-28T07:56:31.438Z,5.62
2023-01-28T07:57:31.419Z,5.62
2023-01-28T07:58:31.414Z,5.62
2023-01-28T07:59:31.631Z,5.62
2023-01-28T08:00:31.389Z,5.62
2023-01-28T08:01:31.420Z,5.62
2023-01-28T08:02:31.356Z,5.62
2023-01-28T08:03:31.349Z,5.62
2023-01-28T08:04:31.439Z,5.62
2023-01-28T08:05:31.517Z,5.62
2023-01-28T08:06:31.340Z,5.62
2023-01-28T08:07:31.291Z,5.62
2023-01-28T08:08:31.297Z,5.62
2023-01-28T08:09:31.290Z,5.62
2023-01-28T08:10:31.290Z,5.62
2023-01-28T08:11:31.257Z,5.62
2023-01-28T08:12:31.261Z,5.62
2023-01-28T08:13:31.249Z,11.25
2023-01-28T08:14:31.229Z,11.25
2023-01-28T08:15:33.387Z,11.25
2023-01-28T08:16:31.223Z,11.25
2023-01-28T08:17:31.196Z,11.25
2023-01-28T08:18:31.181Z,11.25
2023-01-28T08:19:31.170Z,11.25
2023-01-28T08:20:31.187Z,11.25
2023-01-28T08:21:31.189Z,11.25
2023-01-28T08:22:31.137Z,11.25
2023-01-28T08:23:31.134Z,11.25
2023-01-28T08:24:31.163Z,11.25
2023-01-28T08:25:31.118Z,11.25
2023-01-28T08:26:31.365Z,11.25
2023-01-28T08:27:31.090Z,11.25
2023-01-28T08:28:31.066Z,11.25
2023-01-28T08:29:31.059Z,11.25
2023-01-28T08:30:31.103Z,11.25
2023-01-28T08:31:31.092Z,11.25
2023-01-28T08:32:31.042Z,11.25
2023-01-28T08:33:31.029Z,11.25
2023-01-28T08:34:31.008Z,11.25
2023-01-28T08:35:31.006Z,11.25
2023-01-28T08:36:31.006Z,11.25
2023-01-28T08:37:30.969Z,11.25
2023-01-28T08:38:30.983Z,11.25
2023-01-28T08:39:30.958Z,11.25
2023-01-28T08:40:30.948Z,11.25
2023-01-28T08:41:30.928Z,11.25
2023-01-28T08:42:30.922Z,16.88
2023-01-28T08:43:30.925Z,16.88
2023-01-28T08:44:30.915Z,16.88
2023-01-28T08:45:30.905Z,16.88
2023-01-28T08:46:30.930Z,16.88
2023-01-28T08:47:30.864Z,16.88
2023-01-28T08:48:30.843Z,16.88
2023-01-28T08:49:30.848Z,16.88
2023-01-28T08:50:30.856Z,16.88
2023-01-28T08:51:30.844Z,16.88
2023-01-28T08:52:30.815Z,11.25
2023-01-28T08:53:30.824Z,11.25
2023-01-28T08:54:30.776Z,11.25
2023-01-28T08:55:30.783Z,11.25
2023-01-28T08:56:30.786Z,11.25
2023-01-28T08:57:30.751Z,11.25
2023-01-28T08:58:30.736Z,11.25
2023-01-28T08:59:30.759Z,16.88
2023-01-28T09:00:30.732Z,16.88
2023-01-28T09:01:30.729Z,16.88
2023-01-28T09:02:32.328Z,16.88
2023-01-28T09:03:30.710Z,16.88
2023-01-28T09:04:30.670Z,16.88
2023-01-28T09:05:30.687Z,16.88
2023-01-28T09:06:30.660Z,16.88
2023-01-28T09:07:30.931Z,16.88
2023-01-28T09:08:30.624Z,16.88
2023-01-28T09:09:30.624Z,16.88
2023-01-28T09:10:30.592Z,16.88
2023-01-28T09:11:30.596Z,16.88
2023-01-28T09:12:30.624Z,16.88
2023-01-28T09:13:30.561Z,16.88
2023-01-28T09:14:30.556Z,16.88
2023-01-28T09:15:30.545Z,16.88
2023-01-28T09:16:30.535Z,16.88
2023-01-28T09:17:51.532Z,16.88
2023-01-28T09:18:30.525Z,16.88
2023-01-28T09:19:30.517Z,16.88
2023-01-28T09:20:30.492Z,16.88
2023-01-28T09:21:30.493Z,16.88
2023-01-28T09:22:31.257Z,16.88
2023-01-28T09:23:30.452Z,16.88
2023-01-28T09:24:30.508Z,16.88
2023-01-28T09:25:30.438Z,16.88
2023-01-28T09:26:30.441Z,22.50
2023-01-28T09:27:30.426Z,22.50
2023-01-28T09:28:30.400Z,22.50
2023-01-28T09:29:30.392Z,22.50
2023-01-28T09:30:30.491Z,22.50
2023-01-28T09:31:30.417Z,22.50
2023-01-28T09:32:30.369Z,22.50
2023-01-28T09:33:30.369Z,22.50
2023-01-28T09:34:30.342Z,22.50
2023-01-28T09:35:30.344Z,22.50
2023-01-28T09:36:30.320Z,22.50
2023-01-28T09:37:30.300Z,22.50
2023-01-28T09:38:30.311Z,22.50
2023-01-28T09:39:30.304Z,22.50
2023-01-28T09:40:30.280Z,22.50
2023-01-28T09:41:30.260Z,22.50
2023-01-28T09:42:30.277Z,22.50
2023-01-28T09:43:30.279Z,22.50
2023-01-28T09:44:30.253Z,22.50
2023-01-28T09:45:30.221Z,22.50
2023-01-28T09:46:30.236Z,22.50
2023-01-28T09:47:30.189Z,22.50
2023-01-28T09:48:30.185Z,22.50
2023-01-28T09:49:30.176Z,22.50
2023-01-28T09:50:30.190Z,22.50
2023-01-28T09:51:30.150Z,22.50
2023-01-28T09:52:30.153Z,22.50
2023-01-28T09:53:30.130Z,22.50
2023-01-28T09:54:30.122Z,22.50
2023-01-28T09:55:30.133Z,22.50
2023-01-28T09:56:30.106Z,22.50
2023-01-28T09:57:30.074Z,22.50
2023-01-28T09:58:30.082Z,22.50
2023-01-28T09:59:30.073Z,22.50
2023-01-28T10:00:30.102Z,22.50
2023-01-28T10:01:30.061Z,22.50
2023-01-28T10:02:30.053Z,22.50
2023-01-28T10:03:30.038Z,22.50
2023-01-28T10:04:30.017Z,22.50
2023-01-28T10:05:29.995Z,28.12
2023-01-28T10:06:29.989Z,22.50
2023-01-28T10:07:30.016Z,22.50
2023-01-28T10:08:29.966Z,28.12
2023-01-28T10:09:29.949Z,28.12
2023-01-28T10:10:29.937Z,28.12
2023-01-28T10:11:29.938Z,28.12
2023-01-28T10:12:29.930Z,28.12
2023-01-28T10:13:29.897Z,28.12
2023-01-28T10:14:29.897Z,28.12
2023-01-28T10:15:29.874Z,28.12
2023-01-28T10:16:29.890Z,28.12
2023-01-28T10:17:29.922Z,28.12
2023-01-28T10:18:30.285Z,28.12
2023-01-28T10:19:29.826Z,28.12
2023-01-28T10:20:29.818Z,28.12
2023-01-28T10:21:29.812Z,28.12
2023-01-28T10:22:29.818Z,28.12
2023-01-28T10:23:29.780Z,28.12
2023-01-28T10:24:29.799Z,28.12
2023-01-28T10:25:29.765Z,28.12
2023-01-28T10:26:29.758Z,28.12
2023-01-28T10:27:29.766Z,28.12
2023-01-28T10:28:29.758Z,28.12
2023-01-28T10:29:29.723Z,28.12
2023-01-28T10:30:29.726Z,28.12
2023-01-28T10:31:29.731Z,28.12
2023-01-28T10:32:29.701Z,28.12
2023-01-28T10:33:29.697Z,28.12
2023-01-28T10:34:29.691Z,28.12
2023-01-28T10:35:29.659Z,28.12
2023-01-28T10:36:29.647Z,33.75
2023-01-28T10:37:29.643Z,33.75
2023-01-28T10:38:29.634Z,28.12
2023-01-28T10:39:29.607Z,28.12
2023-01-28T10:40:29.618Z,28.12
2023-01-28T10:41:29.595Z,28.12
2023-01-28T10:42:29.589Z,28.12
2023-01-28T10:43:29.566Z,28.12
2023-01-28T10:44:29.569Z,28.12
2023-01-28T10:45:29.793Z,28.12
2023-01-28T10:46:29.547Z,28.12
2023-01-28T10:47:30.918Z,28.12
2023-01-28T10:48:29.640Z,28.12
2023-01-28T10:49:29.503Z,28.12
2023-01-28T10:50:29.502Z,22.50
2023-01-28T10:51:29.479Z,22.50
2023-01-28T10:52:29.474Z,22.50
2023-01-28T10:53:29.467Z,22.50
2023-01-28T10:54:29.463Z,22.50
2023-01-28T10:55:29.678Z,22.50
2023-01-28T10:56:29.436Z,22.50
2023-01-28T10:57:29.411Z,22.50
2023-01-28T10:58:29.413Z,22.50
2023-01-28T10:59:29.386Z,22.50
2023-01-28T11:00:29.389Z,22.50
2023-01-28T11:01:29.389Z,22.50
2023-01-28T11:02:29.488Z,22.50
2023-01-28T11:03:29.355Z,22.50
2023-01-28T11:04:29.359Z,22.50
2023-01-28T11:05:29.331Z,22.50
2023-01-28T11:06:29.342Z,22.50
2023-01-28T11:07:29.327Z,22.50
2023-01-28T11:08:29.307Z,22.50
2023-01-28T11:09:29.269Z,22.50
2023-01-28T11:10:29.276Z,22.50
2023-01-28T11:11:29.406Z,16.88
2023-01-28T11:12:29.247Z,16.88
2023-01-28T11:13:29.258Z,16.88
2023-01-28T11:14:29.229Z,22.50
2023-01-28T11:15:29.216Z,22.50
2023-01-28T11:16:29.195Z,22.50
2023-01-28T11:17:29.255Z,22.50
2023-01-28T11:18:29.198Z,16.88
2023-01-28T11:19:29.170Z,22.50
2023-01-28T11:20:29.159Z,22.50
2023-01-28T11:21:29.153Z,22.50
2023-01-28T11:22:29.188Z,22.50
2023-01-28T11:23:29.136Z,22.50
2023-01-28T11:24:29.179Z,22.50
2023-01-28T11:25:29.115Z,28.12
2023-01-28T11:26:29.115Z,28.12
2023-01-28T11:27:29.064Z,28.12
2023-01-28T11:28:29.075Z,28.12
2023-01-28T11:29:29.045Z,33.75
2023-01-28T11:30:29.047Z,33.75
2023-01-28T11:31:29.089Z,33.75
2023-01-28T11:32:29.046Z,33.75
2023-01-28T11:33:29.027Z,33.75
2023-01-28T11:34:29.007Z,33.75
2023-01-28T11:35:28.981Z,33.75
2023-01-28T11:36:29.009Z,33.75
2023-01-28T11:37:28.963Z,33.75
2023-01-28T11:38:28.980Z,33.75
2023-01-28T11:39:28.967Z,33.75
2023-01-28T11:40:28.942Z,33.75
2023-01-28T11:41:28.913Z,33.75
2023-01-28T11:42:29.511Z,28.12
2023-01-28T11:43:28.891Z,28.12
2023-01-28T11:44:29.014Z,28.12
2023-01-28T11:45:28.882Z,28.12
2023-01-28T11:46:28.880Z,28.12
2023-01-28T11:47:28.843Z,33.75
2023-01-28T11:48:28.851Z,33.75
2023-01-28T11:49:28.845Z,33.75
2023-01-28T11:50:28.844Z,33.75
2023-01-28T11:51:28.802Z,33.75
2023-01-28T11:52:38.741Z,39.38
2023-01-28T11:53:29.781Z,39.38
2023-01-28T11:54:28.785Z,33.75
2023-01-28T11:55:28.796Z,33.75
2023-01-28T11:56:28.771Z,39.38
2023-01-28T11:57:28.740Z,39.38
2023-01-28T11:58:28.743Z,39.38
2023-01-28T11:59:28.714Z,39.38
2023-01-28T12:00:28.712Z,39.38
2023-01-28T12:01:28.707Z,39.38
2023-01-28T12:02:28.753Z,39.38
2023-01-28T12:03:28.674Z,39.38
2023-01-28T12:04:28.704Z,39.38
2023-01-28T12:05:28.664Z,39.38
2023-01-28T12:06:28.656Z,39.38
2023-01-28T12:07:28.632Z,45.00
2023-01-28T12:08:28.624Z,39.38
2023-01-28T12:09:28.613Z,45.00
2023-01-28T12:10:28.646Z,45.00
2023-01-28T12:11:28.583Z,61.88
2023-01-28T12:12:28.585Z,61.88
2023-01-28T12:13:28.561Z,61.88
2023-01-28T12:14:28.589Z,61.88
2023-01-28T12:15:28.560Z,61.88
2023-01-28T12:16:28.540Z,61.88
2023-01-28T12:17:28.512Z,61.88
2023-01-28T12:18:28.514Z,61.88
2023-01-28T12:19:28.490Z,61.88
2023-01-28T12:20:28.506Z,61.88
2023-01-28T12:21:28.469Z,61.88
2023-01-28T12:22:28.481Z,61.88
2023-01-28T12:23:28.441Z,67.50
2023-01-28T12:24:28.469Z,61.88
2023-01-28T12:25:28.440Z,61.88
2023-01-28T12:26:28.429Z,61.88
2023-01-28T12:27:28.405Z,61.88
2023-01-28T12:28:28.392Z,61.88
2023-01-28T12:29:28.404Z,61.88
2023-01-28T12:30:28.400Z,61.88
2023-01-28T12:31:28.502Z,56.25
2023-01-28T12:32:28.369Z,56.25
2023-01-28T12:33:28.341Z,56.25
2023-01-28T12:34:28.361Z,56.25
2023-01-28T12:35:28.324Z,56.25
2023-01-28T12:36:28.302Z,56.25
2023-01-28T12:37:28.328Z,56.25
2023-01-28T12:38:28.300Z,56.25
2023-01-28T12:39:28.284Z,56.25
2023-01-28T12:40:28.261Z,56.25
2023-01-28T12:41:28.267Z,56.25
2023-01-28T12:42:28.248Z,56.25
2023-01-28T12:43:28.252Z,56.25
2023-01-28T12:44:28.229Z,56.25
2023-01-28T12:45:28.236Z,56.25
2023-01-28T12:46:28.188Z,50.62
2023-01-28T12:47:28.220Z,50.62
2023-01-28T12:48:28.167Z,50.62
2023-01-28T12:49:28.401Z,56.25
2023-01-28T12:50:28.199Z,56.25
2023-01-28T12:51:28.166Z,56.25
2023-01-28T12:52:28.148Z,56.25
2023-01-28T12:53:28.144Z,56.25
2023-01-28T12:54:28.122Z,56.25
2023-01-28T12:55:28.105Z,56.25
2023-01-28T12:56:28.081Z,56.25
2023-01-28T12:57:28.092Z,56.25
2023-01-28T12:58:28.097Z,56.25
2023-01-28T12:59:28.057Z,56.25
2023-01-28T13:00:28.057Z,56.25
2023-01-28T13:01:28.040Z,56.25
2023-01-28T13:02:28.018Z,56.25
2023-01-28T13:03:28.017Z,56.25
2023-01-28T13:04:27.992Z,56.25
2023-01-28T13:05:27.982Z,56.25
2023-01-28T13:06:27.991Z,56.25
2023-01-28T13:07:27.974Z,56.25
2023-01-28T13:08:27.940Z,56.25